createdAt,value
2023-02-14T00:01:34.875Z,3.95
2023-02-14T00:04:24.512Z,3.70
2023-02-14T00:07:14.320Z,3.95
2023-02-14T00:10:03.484Z,3.67
2023-02-14T00:12:55.317Z,3.60
2023-02-14T00:15:47.631Z,5.95
2023-02-14T00:19:02.887Z,6.20
2023-02-14T00:21:52.433Z,5.93
2023-02-14T00:24:41.769Z,5.75
2023-02-14T00:27:30.925Z,5.70
2023-02-14T00:30:25.816Z,4.82
2023-02-14T00:33:15.062Z,4.78
2023-02-14T00:36:05.998Z,4.75
2023-02-14T00:38:55.131Z,4.95
2023-02-14T00:41:44.694Z,4.80
2023-02-14T00:44:33.920Z,4.90
2023-02-14T00:47:23.223Z,4.85
2023-02-14T00:50:16.510Z,4.95
2023-02-14T00:53:06.668Z,4.80
2023-02-14T00:55:55.951Z,5.07
2023-02-14T00:58:46.095Z,4.97
2023-02-14T01:01:35.498Z,4.68
2023-02-14T01:04:28.397Z,5.13
2023-02-14T01:07:17.762Z,4.55
2023-02-14T01:10:07.745Z,4.60
2023-02-14T01:12:57.023Z,4.50
2023-02-14T01:15:49.703Z,4.50
2023-02-14T01:18:39.549Z,4.43
2023-02-14T01:21:31.512Z,4.70
2023-02-14T01:24:20.821Z,4.75
2023-02-14T01:27:10.131Z,5.03
2023-02-14T01:29:59.390Z,4.75
2023-02-14T01:32:48.879Z,4.75
2023-02-14T01:35:41.157Z,4.78
2023-02-14T01:38:30.573Z,4.82
2023-02-14T01:41:20.520Z,5.00
2023-02-14T01:44:15.511Z,5.10
2023-02-14T01:47:07.435Z,4.78
2023-02-14T01:50:03.047Z,5.30
2023-02-14T01:53:07.720Z,5.35
2023-02-14T01:56:07.537Z,4.78
2023-02-14T01:59:02.311Z,5.65
2023-02-14T02:01:54.282Z,5.20
2023-02-14T02:04:47.029Z,5.15
2023-02-14T02:07:37.556Z,5.15
2023-02-14T02:10:29.335Z,4.80
2023-02-14T02:13:21.088Z,5.22
2023-02-14T02:16:29.396Z,4.95
2023-02-14T02:19:42.615Z,5.18
2023-02-14T02:22:57.796Z,4.70
2023-02-14T02:26:12.470Z,5.03
2023-02-14T02:29:17.141Z,4.68
2023-02-14T02:32:50.088Z,4.78
2023-02-14T02:36:00.576Z,5.03
2023-02-14T02:39:07.558Z,4.80
2023-02-14T02:42:31.707Z,4.80
2023-02-14T02:46:14.542Z,5.65
2023-02-14T02:49:09.857Z,4.50
2023-02-14T02:52:19.833Z,4.70
2023-02-14T02:55:17.567Z,5.15
2023-02-14T02:58:07.268Z,4.78
2023-02-14T03:00:58.131Z,5.10
2023-02-14T03:04:08.284Z,5.20
2023-02-14T03:07:00.874Z,4.60
2023-02-14T03:13:24.659Z,4.93
2023-02-14T03:16:17.030Z,4.97
2023-02-14T03:19:45.103Z,4.85
2023-02-14T03:22:47.784Z,4.68
2023-02-14T03:26:03.149Z,4.72
2023-02-14T03:29:08.836Z,4.78
2023-02-14T03:32:39.762Z,4.63
2023-02-14T03:35:37.793Z,4.97
2023-02-14T03:38:37.798Z,4.88
2023-02-14T03:41:32.904Z,4.97
2023-02-14T03:44:32.627Z,4.57
2023-02-14T03:47:39.245Z,4.60
2023-02-14T03:50:40.595Z,4.60
2023-02-14T03:53:36.258Z,5.03
2023-02-14T03:56:32.893Z,5.18
2023-02-14T03:59:25.096Z,4.60
2023-02-14T04:02:20.115Z,4.90
2023-02-14T04:05:15.312Z,4.72
2023-02-14T04:08:04.557Z,4.72
2023-02-14T04:10:54.692Z,4.78
2023-02-14T04:13:43.920Z,4.65
2023-02-14T04:16:53.561Z,4.43
2023-02-14T04:19:42.891Z,4.30
2023-02-14T04:22:32.074Z,4.45
2023-02-14T04:25:23.772Z,4.22
2023-02-14T04:28:14.262Z,4.30
2023-02-14T04:31:05.086Z,3.92
2023-02-14T04:33:54.329Z,4.20
2023-02-14T04:36:43.797Z,4.20
2023-02-14T04:39:33.565Z,4.35
2023-02-14T04:42:22.826Z,4.32
2023-02-14T04:45:13.832Z,3.90
2023-02-14T04:48:03.018Z,3.70
2023-02-14T04:50:55.966Z,3.70
2023-02-14T04:53:45.408Z,3.60
2023-02-14T04:56:34.652Z,3.70
2023-02-14T04:59:24.964Z,3.80
2023-02-14T05:02:14.566Z,3.67
2023-02-14T05:05:03.930Z,3.70
2023-02-14T05:07:53.174Z,3.80
2023-02-14T05:10:42.610Z,3.75
2023-02-14T05:13:33.076Z,3.88
2023-02-14T05:16:22.478Z,3.90
2023-02-14T05:19:11.712Z,3.70
2023-02-14T05:22:01.029Z,3.70
2023-02-14T05:24:50.319Z,3.50
2023-02-14T05:27:39.463Z,3.28
2023-02-14T05:30:30.005Z,3.70
2023-02-14T05:33:19.332Z,3.75
2023-02-14T05:36:08.933Z,3.63
2023-02-14T05:38:58.194Z,3.30
2023-02-14T05:41:47.904Z,3.50
2023-02-14T05:44:37.053Z,3.47
2023-02-14T05:47:26.242Z,3.40
2023-02-14T05:50:15.735Z,3.20
2023-02-14T05:53:06.017Z,3.65
2023-02-14T05:55:55.126Z,3.42
2023-02-14T05:58:49.371Z,3.30
2023-02-14T06:01:39.680Z,3.30
2023-02-14T06:04:29.038Z,3.03
2023-02-14T06:07:18.488Z,3.50
2023-02-14T06:10:10.811Z,3.20
2023-02-14T06:13:00.017Z,3.33
2023-02-14T06:15:49.278Z,3.20
2023-02-14T06:18:38.502Z,3.10
2023-02-14T06:21:27.806Z,3.17
2023-02-14T06:24:16.972Z,3.50
2023-02-14T06:27:06.318Z,3.33
2023-02-14T06:29:55.579Z,3.40
2023-02-14T06:32:44.802Z,3.03
2023-02-14T06:35:34.007Z,3.20
2023-02-14T06:38:23.246Z,3.05
2023-02-14T06:41:13.071Z,3.28
2023-02-14T06:44:02.333Z,3.58
2023-02-14T06:46:51.605Z,3.10
2023-02-14T06:49:40.968Z,3.20
2023-02-14T06:52:30.145Z,3.13
2023-02-14T06:55:19.899Z,3.00
2023-02-14T06:58:09.081Z,3.10
2023-02-14T07:01:00.399Z,2.90
2023-02-14T07:03:50.128Z,3.20
2023-02-14T07:06:39.531Z,3.20
2023-02-14T07:09:28.820Z,3.20
2023-02-14T07:12:18.008Z,3.20
2023-02-14T07:15:09.242Z,2.70
2023-02-14T07:17:58.514Z,3.33
2023-02-14T07:20:47.713Z,3.30
2023-02-14T07:23:37.045Z,2.90
2023-02-14T07:26:26.256Z,2.75
2023-02-14T07:29:15.487Z,3.38
2023-02-14T07:32:04.903Z,3.00
2023-02-14T07:34:54.299Z,2.90
2023-02-14T07:37:43.557Z,3.25
2023-02-14T07:40:34.462Z,3.30
2023-02-14T07:43:23.664Z,2.95
2023-02-14T07:46:12.935Z,2.95
2023-02-14T07:49:02.155Z,2.70
2023-02-14T07:51:51.328Z,2.90
2023-02-14T07:54:40.626Z,2.90
2023-02-14T07:57:29.852Z,2.80
2023-02-14T08:00:20.319Z,2.80
2023-02-14T08:03:09.552Z,2.63
2023-02-14T08:05:58.747Z,2.70
2023-02-14T08:08:48.621Z,2.42
2023-02-14T08:11:57.506Z,2.90
2023-02-14T08:14:46.685Z,3.08
2023-02-14T08:17:36.691Z,2.90
2023-02-14T08:20:27.794Z,2.80
2023-02-14T08:23:18.225Z,2.80
2023-02-14T08:26:07.754Z,2.97
2023-02-14T08:28:56.936Z,2.70
2023-02-14T08:31:48.370Z,2.80
2023-02-14T08:34:37.548Z,2.90
2023-02-14T08:37:28.404Z,2.95
2023-02-14T08:40:17.673Z,2.45
2023-02-14T08:43:08.104Z,2.90
2023-02-14T08:45:57.353Z,2.92
2023-02-14T08:48:46.830Z,2.80
2023-02-14T08:51:35.971Z,2.78
2023-02-14T08:54:25.139Z,2.90
2023-02-14T08:57:16.433Z,2.78
2023-02-14T09:00:07.664Z,2.60
2023-02-14T09:02:56.903Z,2.83
2023-02-14T09:05:46.086Z,2.53
2023-02-14T09:08:38.257Z,2.60
2023-02-14T09:11:27.548Z,2.65
2023-02-14T09:14:16.900Z,2.90
2023-02-14T09:17:06.873Z,2.95
2023-02-14T09:19:56.060Z,2.70
2023-02-14T09:22:46.536Z,2.65
2023-02-14T09:25:36.851Z,2.58
2023-02-14T09:28:26.090Z,3.42
2023-02-14T09:31:18.209Z,2.80
2023-02-14T09:34:07.649Z,2.60
2023-02-14T09:37:15.559Z,2.80
2023-02-14T09:40:05.634Z,2.83
2023-02-14T09:43:25.478Z,2.75
2023-02-14T09:46:17.151Z,2.75
2023-02-14T09:49:06.511Z,2.67
2023-02-14T09:51:56.134Z,2.65
2023-02-14T09:54:52.618Z,2.70
2023-02-14T09:58:00.758Z,2.75
2023-02-14T10:01:20.123Z,3.13
2023-02-14T10:04:33.562Z,2.72
2023-02-14T10:07:41.707Z,2.78
2023-02-14T10:10:38.636Z,2.60
2023-02-14T10:14:12.401Z,2.90
2023-02-14T10:17:18.601Z,2.92
2023-02-14T10:20:21.131Z,2.90
2023-02-14T10:23:22.935Z,2.60
2023-02-14T10:26:39.119Z,2.60
2023-02-14T10:29:28.529Z,2.90
2023-02-14T10:32:26.008Z,2.70
2023-02-14T10:35:43.918Z,2.70
2023-02-14T10:39:02.896Z,2.80
2023-02-14T10:42:15.071Z,2.60
2023-02-14T10:45:20.904Z,2.53
2023-02-14T10:48:27.328Z,2.50
2023-02-14T10:51:16.542Z,2.70
2023-02-14T10:54:22.575Z,2.40
2023-02-14T10:57:48.457Z,2.40
2023-02-14T11:00:42.409Z,2.60
2023-02-14T11:03:32.063Z,2.60
2023-02-14T11:06:21.443Z,2.78
2023-02-14T11:09:13.216Z,2.60
2023-02-14T11:12:02.527Z,2.88
2023-02-14T11:14:51.701Z,2.70
2023-02-14T11:17:41.050Z,2.70
2023-02-14T11:20:33.525Z,2.70
2023-02-14T11:23:25.801Z,2.53
2023-02-14T11:26:32.919Z,2.78
2023-02-14T11:29:36.415Z,2.58
2023-02-14T11:32:29.486Z,2.40
2023-02-14T11:35:28.652Z,2.47
2023-02-14T11:38:34.898Z,2.50
2023-02-14T11:41:25.198Z,3.08
2023-02-14T11:44:23.363Z,2.55
2023-02-14T11:47:28.548Z,2.70
2023-02-14T11:50:26.898Z,2.75
2023-02-14T11:53:23.727Z,2.42
2023-02-14T11:56:13.899Z,2.55
2023-02-14T11:59:05.332Z,2.60
2023-02-14T12:01:55.415Z,2.35
2023-02-14T12:04:46.979Z,2.80
2023-02-14T12:07:39.243Z,3.00
2023-02-14T12:10:33.529Z,2.50
2023-02-14T12:13:27.461Z,2.67
2023-02-14T12:16:31.029Z,2.63
2023-02-14T12:19:34.097Z,2.40
2023-02-14T12:22:40.942Z,2.50
2023-02-14T12:25:43.960Z,2.50
2023-02-14T12:28:45.129Z,2.70
2023-02-14T12:31:34.344Z,2.47
2023-02-14T12:34:23.734Z,2.50
2023-02-14T12:37:29.341Z,2.50
2023-02-14T12:40:41.849Z,2.60
2023-02-14T12:43:48.924Z,2.80
2023-02-14T12:46:52.398Z,2.53
2023-02-14T12:49:56.423Z,2.58
2023-02-14T12:53:03.631Z,2.20
2023-02-14T12:55:58.591Z,2.58
2023-02-14T12:59:24.628Z,2.30
2023-02-14T13:02:46.851Z,2.25
2023-02-14T13:06:13.229Z,2.40
2023-02-14T13:09:29.618Z,2.10
2023-02-14T13:12:54.378Z,2.20
2023-02-14T13:15:51.643Z,2.33
2023-02-14T13:18:52.172Z,2.33
2023-02-14T13:21:42.638Z,2.50
2023-02-14T13:24:41.113Z,2.20
2023-02-14T13:27:34.363Z,2.20
2023-02-14T13:30:31.006Z,2.10
2023-02-14T13:33:51.226Z,2.53
2023-02-14T13:36:41.732Z,2.30
2023-02-14T13:39:40.517Z,2.15
2023-02-14T13:42:51.557Z,2.17
2023-02-14T13:45:55.007Z,2.35
2023-02-14T13:48:56.437Z,2.38
2023-02-14T13:51:49.367Z,2.20
2023-02-14T13:54:48.567Z,2.45
2023-02-14T13:57:41.581Z,2.42
2023-02-14T14:00:54.797Z,2.13
2023-02-14T14:03:43.946Z,2.33
2023-02-14T14:07:05.138Z,2.08
2023-02-14T14:09:56.512Z,2.00
2023-02-14T14:12:45.926Z,2.17
2023-02-14T14:15:35.101Z,2.13
2023-02-14T14:18:43.339Z,2.30
2023-02-14T14:21:40.933Z,2.42
2023-02-14T14:24:39.495Z,2.00
2023-02-14T14:27:42.790Z,1.92
2023-02-14T14:30:36.416Z,2.17
2023-02-14T14:33:27.928Z,2.20
2023-02-14T14:36:25.084Z,2.38
2023-02-14T14:39:31.169Z,2.13
2023-02-14T14:42:21.270Z,2.20
2023-02-14T14:45:26.818Z,2.13
2023-02-14T14:48:27.553Z,2.20
2023-02-14T14:51:37.106Z,2.00
2023-02-14T14:54:30.869Z,2.33
2023-02-14T14:57:20.556Z,2.10
2023-02-14T15:00:21.188Z,2.20
2023-02-14T15:03:13.096Z,2.33
2023-02-14T15:06:31.648Z,2.00
2023-02-14T15:09:24.080Z,1.83
2023-02-14T15:12:40.151Z,1.90
2023-02-14T15:15:29.854Z,1.90
2023-02-14T15:18:20.874Z,1.80
2023-02-14T15:21:10.402Z,2.17
2023-02-14T15:23:59.895Z,1.73
2023-02-14T15:26:53.123Z,1.88
2023-02-14T15:29:42.833Z,1.85
2023-02-14T15:32:35.732Z,1.75
2023-02-14T15:35:29.945Z,1.98
2023-02-14T15:38:21.267Z,1.80
2023-02-14T15:41:11.439Z,1.90
2023-02-14T15:44:01.149Z,1.70
2023-02-14T15:46:55.689Z,1.95
2023-02-14T15:49:47.560Z,1.80
2023-02-14T15:52:36.729Z,2.10
2023-02-14T15:55:28.777Z,1.70
2023-02-14T15:58:25.000Z,1.75
2023-02-14T16:01:14.918Z,1.70
2023-02-14T16:04:06.971Z,1.90
2023-02-14T16:07:26.083Z,1.90
2023-02-14T16:10:27.692Z,1.90
2023-02-14T16:13:22.780Z,1.70
2023-02-14T16:16:17.880Z,2.00
2023-02-14T16:19:26.898Z,1.90
2023-02-14T16:22:35.446Z,1.73
2023-02-14T16:25:25.438Z,1.80
2023-02-14T16:28:15.643Z,1.70
2023-02-14T16:31:11.142Z,1.95
2023-02-14T16:34:00.657Z,1.98
2023-02-14T16:36:50.288Z,1.80
2023-02-14T16:39:41.156Z,1.77
2023-02-14T16:42:30.978Z,1.88
2023-02-14T16:45:23.349Z,2.00
2023-02-14T16:48:13.248Z,2.22
2023-02-14T16:51:02.926Z,2.00
2023-02-14T16:53:52.571Z,1.90
2023-02-14T16:56:53.437Z,1.85
2023-02-14T16:59:42.609Z,1.80
2023-02-14T17:02:31.857Z,2.00
2023-02-14T17:05:22.216Z,2.00
2023-02-14T17:08:14.458Z,1.90
2023-02-14T17:11:05.408Z,2.17
2023-02-14T17:13:57.303Z,1.90
2023-02-14T17:16:46.799Z,2.00
2023-02-14T17:19:36.116Z,2.00
2023-02-14T17:22:25.546Z,2.00
2023-02-14T17:25:15.137Z,2.00
2023-02-14T17:28:04.332Z,2.00
2023-02-14T17:30:54.728Z,1.83
2023-02-14T17:33:44.082Z,1.98
2023-02-14T17:36:33.358Z,2.45
2023-02-14T17:39:22.560Z,1.95
2023-02-14T17:42:12.230Z,1.85
2023-02-14T17:45:01.988Z,1.77
2023-02-14T17:47:51.159Z,1.90
2023-02-14T17:50:40.703Z,1.92
2023-02-14T17:53:29.888Z,1.90
2023-02-14T17:56:23.808Z,1.98
2023-02-14T17:59:13.446Z,2.00
2023-02-14T18:02:02.864Z,1.83
2023-02-14T18:04:52.151Z,1.98
2023-02-14T18:07:41.375Z,1.85
2023-02-14T18:10:30.616Z,1.88
2023-02-14T18:13:19.778Z,1.80
2023-02-14T18:16:11.549Z,1.95
2023-02-14T18:19:04.784Z,1.98
2023-02-14T18:21:54.445Z,1.80
2023-02-14T18:24:43.719Z,1.70
2023-02-14T18:27:33.231Z,1.80
2023-02-14T18:30:23.713Z,1.75
2023-02-14T18:33:13.802Z,2.03
2023-02-14T18:36:05.249Z,1.90
2023-02-14T18:38:56.149Z,1.90
2023-02-14T18:41:45.338Z,1.83
2023-02-14T18:44:34.567Z,1.80
2023-02-14T18:47:23.704Z,1.80
2023-02-14T18:50:12.949Z,1.80
2023-02-14T18:53:02.158Z,1.70
2023-02-14T18:55:51.421Z,1.83
2023-02-14T18:58:42.287Z,1.77
2023-02-14T19:01:35.371Z,1.70
2023-02-14T19:04:24.592Z,1.80
2023-02-14T19:07:13.879Z,1.90
2023-02-14T19:10:04.970Z,1.88
2023-02-14T19:12:54.226Z,1.90
2023-02-14T19:15:43.408Z,2.08
2023-02-14T19:18:33.739Z,1.80
2023-02-14T19:21:25.539Z,1.80
2023-02-14T19:24:17.355Z,1.70
2023-02-14T19:27:06.748Z,1.80
2023-02-14T19:29:55.976Z,1.95
2023-02-14T19:32:45.210Z,1.90
2023-02-14T19:35:34.436Z,1.70
2023-02-14T19:38:23.589Z,1.80
2023-02-14T19:41:18.322Z,1.80
2023-02-14T19:44:09.123Z,1.80
2023-02-14T19:47:01.854Z,1.83
2023-02-14T19:49:51.989Z,2.13
2023-02-14T19:52:41.164Z,1.70
2023-02-14T19:55:30.384Z,1.70
2023-02-14T19:58:19.592Z,1.80
2023-02-14T20:01:11.946Z,1.85
2023-02-14T20:04:01.540Z,1.95
2023-02-14T20:06:51.836Z,1.90
2023-02-14T20:09:41.009Z,1.70
2023-02-14T20:12:30.152Z,1.80
2023-02-14T20:15:20.408Z,1.92
2023-02-14T20:18:11.599Z,1.83
2023-02-14T20:21:04.216Z,2.03
2023-02-14T20:23:53.651Z,2.13
2023-02-14T20:26:42.904Z,1.90
2023-02-14T20:29:32.173Z,1.95
2023-02-14T20:32:21.580Z,1.85
2023-02-14T20:35:10.764Z,1.90
2023-02-14T20:38:00.197Z,1.90
2023-02-14T20:40:49.471Z,1.90
2023-02-14T20:43:47.500Z,1.60
2023-02-14T20:46:37.194Z,1.75
2023-02-14T20:49:28.273Z,1.85
2023-02-14T20:52:18.938Z,1.90
2023-02-14T20:55:08.359Z,2.00
2023-02-14T20:58:03.102Z,1.90
2023-02-14T21:00:52.328Z,1.85
2023-02-14T21:03:43.105Z,1.83
2023-02-14T21:06:35.534Z,1.88
2023-02-14T21:09:24.809Z,1.70
2023-02-14T21:12:14.385Z,1.90
2023-02-14T21:15:03.647Z,2.00
2023-02-14T21:17:52.963Z,1.80
2023-02-14T21:20:42.216Z,2.10
2023-02-14T21:23:31.408Z,1.73
2023-02-14T21:26:22.321Z,1.60
2023-02-14T21:29:15.679Z,1.80
2023-02-14T21:32:04.929Z,1.90
2023-02-14T21:34:54.337Z,1.92
2023-02-14T21:37:50.274Z,2.10
2023-02-14T21:40:39.623Z,1.95
2023-02-14T21:43:28.719Z,1.80
2023-02-14T21:46:21.734Z,1.70
2023-02-14T21:49:32.084Z,1.88
2023-02-14T21:52:21.309Z,1.98
2023-02-14T21:55:10.841Z,1.70
2023-02-14T21:58:00.106Z,1.85
2023-02-14T22:00:49.462Z,1.90
2023-02-14T22:03:39.714Z,1.80
2023-02-14T22:06:29.704Z,1.70
2023-02-14T22:09:19.920Z,1.98
2023-02-14T22:12:09.154Z,2.03
2023-02-14T22:15:01.215Z,1.70
2023-02-14T22:17:50.415Z,1.70
2023-02-14T22:20:40.985Z,2.00
2023-02-14T22:23:34.406Z,1.70
2023-02-14T22:29:19.988Z,1.67
2023-02-14T22:32:09.472Z,1.70
2023-02-14T22:34:59.176Z,1.70
2023-02-14T22:37:48.332Z,1.80
2023-02-14T22:40:37.529Z,1.80
2023-02-14T22:43:28.404Z,1.70
2023-02-14T22:46:23.281Z,1.90
2023-02-14T22:49:15.883Z,1.77
2023-02-14T22:52:05.963Z,1.60
2023-02-14T22:54:55.519Z,1.85
2023-02-14T22:57:44.819Z,2.40
2023-02-14T23:00:36.699Z,1.80
2023-02-14T23:03:28.024Z,1.73
2023-02-14T23:06:17.838Z,4.13
2023-02-14T23:09:09.324Z,1.90
2023-02-14T23:11:58.709Z,1.90
2023-02-14T23:15:09.486Z,1.80
2023-02-14T23:18:17.996Z,1.80
2023-02-14T23:21:33.356Z,1.60
2023-02-14T23:24:23.668Z,1.77
2023-02-14T23:27:13.328Z,2.22
2023-02-14T23:30:04.114Z,1.95
2023-02-14T23:32:53.639Z,2.08
2023-02-14T23:35:43.116Z,2.10
2023-02-14T23:38:32.731Z,1.90
2023-02-14T23:41:40.394Z,1.85
2023-02-14T23:44:31.859Z,2.28
2023-02-14T23:47:21.443Z,2.53
2023-02-14T23:50:11.465Z,1.95
2023-02-14T23:53:01.425Z,2.03
2023-02-14T23:55:51.024Z,1.90
2023-02-14T23:58:42.471Z,2.28
